SeattleWeather.com

KSEA - Seattle/Metro, Washington, USA
Distance from station: SSW 24mi, 39km
Updated: Tue, 22-Aug-2017 6:53am PDT
Few Clouds
Few Clouds
 Wind from calm
Wind: Calm
Temperature: 61°F , 16°C
Dew Point: 54°F , 12°C
Humidity: 77%
Barometer: 30.02 inHg , 1016.6 hPa
Clouds: Few Clouds
Visibility: 10 miles , 16 km
Cloud details: Few Clouds 20000 ft
2017/08/22 13:53 KSEA 221353Z 00000KT 10SM FEW200 16/12 A3002 RMK AO2 SLP168 T01610122
KBFI - Seattle/Boeing, Washington, USA
Distance from station: SSW 18mi, 29km
Updated: Tue, 22-Aug-2017 6:53am PDT
Clear
Clear
 Wind from calm
Wind: Calm
Temperature: 61°F , 16°C
Dew Point: 55°F , 13°C
Humidity: 83%
Barometer: 30.01 inHg , 1016.3 hPa
Clouds: Clear
Visibility: 10 miles , 16 km
2017/08/22 13:53 KBFI 221353Z 00000KT 10SM CLR 16/13 A3001 RMK AO2 SLP160 T01610133
NWS Forecast for 2 Miles WNW South Seattle WA
National Weather Service Forecast for: 2 Miles WNW South Seattle WA
Issued by: National Weather Service Seattle, WA
Updated: 10:06 pm PDT Aug 21, 2017
 
Today

Today: Sunny, with a high near 82. Northwest wind 3 to 6 mph.
Sunny

Tonight

Tonight: Increasing clouds, with a low around 61. East northeast wind 7 to 11 mph.
Increasing
Clouds
Wednesday

Wednesday: Mostly cloudy, with a high near 75. South southeast wind around 5 mph becoming calm  in the morning.
Mostly Cloudy

Wednesday
Night
Wednesday Night: A 30 percent chance of showers, mainly after 11pm.  Mostly cloudy, with a low around 55. Northeast wind 9 to 14 mph.
Chance
Showers
Thursday

Thursday: A 30 percent chance of showers before 11am.  Mostly sunny, with a high near 70. North wind 5 to 10 mph.
Chance
Showers then
Mostly Sunny
Thursday
Night
Thursday Night: Partly cloudy, with a low around 53.
Partly Cloudy

Friday

Friday: Mostly sunny, with a high near 75.
Mostly Sunny

Friday
Night
Friday Night: Mostly clear, with a low around 55.
Mostly Clear

Saturday

Saturday: Sunny, with a high near 81.
Sunny

Hi 82 °F Lo 61 °F Hi 75 °F Lo 55 °F Hi 70 °F Lo 53 °F Hi 75 °F Lo 55 °F Hi 81 °F

 

Today
 
Sunny, with a high near 82. Northwest wind 3 to 6 mph.
Tonight
 
Increasing clouds, with a low around 61. East northeast wind 7 to 11 mph.
Wednesday
 
Mostly cloudy, with a high near 75. South southeast wind around 5 mph becoming calm in the morning.
Wednesday Night
 
A 30 percent chance of showers, mainly after 11pm. Mostly cloudy, with a low around 55. Northeast wind 9 to 14 mph.
Thursday
 
A 30 percent chance of showers before 11am. Mostly sunny, with a high near 70. North wind 5 to 10 mph.
Thursday Night
 
Partly cloudy, with a low around 53.
Friday
 
Mostly sunny, with a high near 75.
Friday Night
 
Mostly clear, with a low around 55.
Saturday
 
Sunny, with a high near 81.
Saturday Night
 
Clear, with a low around 60.
Sunday
 
Sunny, with a high near 83.
Sunday Night
 
Clear, with a low around 60.
Monday
 
Sunny, with a high near 83.